MDPP/POP METAR and TAF weather

Enter ICAO airport designator
Station Type Date Time Source
MDPP METAR 2020/02/25 12:00 UTC NOAA

MDPP 251200Z 00000KT 9999 BKN018 21/20 Q1017


Station Type Date Time Source
MDPP Decoded METAR 2020/02/25 12:00 UTC NOAA

Puerto Plata International, Dominican Republic (MDPP) 19-45N 070-33W
Feb 25, 2020 - 07:00 AM EST / 2020.02.25 1200 UTC
Wind: Calm:0
Visibility: greater than 7 mile(s):0
Sky conditions: mostly cloudy
Temperature: 69 F (21 C)
Dew Point: 68 F (20 C)
Relative Humidity: 94%
Pressure (altimeter): 30.03 in. Hg (1017 hPa)
ob: MDPP 251200Z 00000KT 9999 BKN018 21/20 Q1017
cycle: 12

Station Type Date Time Source
MDPP TAF 2020/02/25 12:28 UTC NOAA

TAF MDPP 251000Z 2512/2612 00000KT 9999 FEW016
BECMG 2513/2515 12010KT

Example: see airport list